Lakeland Linder Regional Airport
KLAL : now visible

Airfield :











YOU CAN JOIN US ON...

 
LOGIN :

Register | Disclaimer

   EN    FR    IT 

 









Legend :    VFR   Marginal VFR   IFR   Intensive IFR   Very Intensive IFR
Visi :
Ceiling :
>= 8 km
>= 3000ft
5 to 8 km
1000 to 3000 ft
1500m to 5 km
500 to 1000 ft
800 to 1500m
200 to 500 ft
< 800m
< 200 ft
Symbols :   Thunderstorms  Fog  Heavy snow  Heavy precipitations  Wind > 20 kt






- Airport Elevation : 142 ft


KLAL - Lakeland Linder Regional

CURRENT METAR :
  • 241239Z 00000KT 10SM BKN010 14/13 A3016

EXPIRED METARs :
  • 241150Z 00000KT 10SM BKN008 14/13 A3015
  • 241050Z 36005KT 10SM OVC008 15/13 A3013
  • 241035Z AUTO 35005KT 10SM OVC008 15/13 A3012 RMK AO2 PNO
  • 241015Z AUTO 00000KT 10SM OVC008 15/13 A3011 RMK AO2 PNO
  • 240955Z AUTO 00000KT 10SM OVC008 15/13 A3011 RMK AO2 PNO

TAF KLAL
Valid from the 24 at 12:00 until the 25 at 12:00 UTC


241138Z 2412/2512 VRB03KT 6SM BR BKN006
FM241400 06005KT P6SM SCT006 BKN025
FM241700 07006KT P6SM SCT025 BKN050
FM250300 08004KT P6SM BKN010 OVC050
FM251000 07003KT 3SM BR VCFG BKN010
KZMA FIR / North America



MET'MAP, your aeronautical weather chart ! - Copyright ORBIFLY December 2007 - Disclaimer

ORBIFLY MET'MAP TEAM :

Programming & Development : Alexandra Zaïnal
Concept & original design : Baudouin d'Aumeries
Assistance for programming : Marc-Olivier Méhu
Technical & hardware support : Manuel Goepfert

Contact : metmap@orbifly.com




SOURCES & CREDITS :

   NOAA       Earth
Advisory